Church, Iowa
Current Conditions -  °F | °C
As of 7:55 AM on Monday 24 Nov 2014 (Local Time) from KDEH Reporting Station
Light Rain Light Rain  
Wind Chill: 13°   Ceiling: 1200
Heat Index: 27°   Visibility: 2mi
Dew Point: 25°   Wind: 18mph
Humidity: 93%   Direction: 300°WNW
Pressure: 29.27"   Gusts: 28mph
Location:  43.3826°N, 91.3585°W
Report Text: KDEH 241355Z AUTO 30016G24KT 2SM -RA OVC012 M03/M04 A2927 RMK AO2
Loading
Personal Weather Stations






























Interactive Weather Map New forecast layout! Learn more

10-Day Weather Forecast

Advertisements
Track Severe Weather on mobile